Time;durP1;ratioP1;P1;durP2;ratioP2;P2;SDS_P1;SDS_P2;PMS_P1;PMS_P2;Temp;Humidity;BMP_temperature;BMP_pressure;BME280_temperature;BME280_humidity;BME280_pressure;Samples;Min_cycle;Max_cycle;Signal;HPM_P1;HPM_P2
2021/11/04 00:00:33;;;;;;;52.70;34.40;;;9.00;96.40;;;;;;5054239;28;20465;-64
2021/11/04 00:02:59;;;;;;;58.43;35.93;;;9.00;96.50;;;;;;5054049;28;20445;-64
2021/11/04 00:05:26;;;;;;;56.27;35.43;;;9.00;96.50;;;;;;5054023;28;20541;-64
2021/11/04 00:07:57;;;;;;;54.53;35.27;;;9.00;96.50;;;;;;5053848;28;20470;-65
2021/11/04 00:10:25;;;;;;;56.40;34.80;;;9.00;96.60;;;;;;5053943;28;20456;-64
2021/11/04 00:12:53;;;;;;;59.50;36.57;;;9.00;96.60;;;;;;5053781;28;20495;-64
2021/11/04 00:15:20;;;;;;;57.00;33.57;;;8.90;96.60;;;;;;5053489;28;20965;-64
2021/11/04 00:17:47;;;;;;;53.30;35.40;;;8.90;96.60;;;;;;5053863;28;20438;-65
2021/11/04 00:20:15;;;;;;;56.73;36.50;;;8.90;96.60;;;;;;5053726;28;20446;-65
2021/11/04 00:22:42;;;;;;;54.43;33.80;;;8.90;96.60;;;;;;5053705;28;20451;-65
2021/11/04 00:25:10;;;;;;;56.80;36.43;;;8.90;96.60;;;;;;5053658;28;20808;-65
2021/11/04 00:27:37;;;;;;;57.87;36.57;;;9.00;96.70;;;;;;5053558;28;20885;-65
2021/11/04 00:30:07;;;;;;;53.67;33.53;;;9.00;96.70;;;;;;5053302;28;20465;-64
2021/11/04 00:32:34;;;;;;;60.30;36.83;;;9.00;96.70;;;;;;5053671;28;20821;-65
2021/11/04 00:35:00;;;;;;;54.97;34.80;;;9.00;96.70;;;;;;5053564;28;20820;-65
2021/11/04 00:37:27;;;;;;;53.30;34.23;;;9.00;96.60;;;;;;5053139;28;20446;-65
2021/11/04 00:39:54;;;;;;;62.87;36.10;;;9.00;96.50;;;;;;5053321;28;20523;-65
2021/11/04 00:42:21;;;;;;;54.47;35.27;;;9.00;96.40;;;;;;5053466;28;20496;-65
2021/11/04 00:44:48;;;;;;;56.30;34.60;;;9.00;96.50;;;;;;5053420;28;20795;-64
2021/11/04 00:47:16;;;;;;;58.90;34.23;;;9.00;96.50;;;;;;5053400;28;20452;-65
2021/11/04 00:49:43;;;;;;;54.43;35.57;;;9.00;96.40;;;;;;5053311;28;20469;-64
2021/11/04 00:52:10;;;;;;;55.43;36.23;;;9.10;96.30;;;;;;5053326;28;20485;-64
2021/11/04 00:54:36;;;;;;;60.70;35.40;;;9.00;96.20;;;;;;5053534;28;20426;-65
2021/11/04 00:57:03;;;;;;;63.10;35.97;;;9.00;96.10;;;;;;5053487;28;20448;-65
2021/11/04 00:59:30;;;;;;;66.90;37.20;;;9.00;96.10;;;;;;5053453;28;20470;-65
2021/11/04 01:01:57;;;;;;;55.60;36.43;;;8.90;96.10;;;;;;5053552;28;20449;-64
2021/11/04 01:04:25;;;;;;;59.50;35.30;;;8.90;96.20;;;;;;5053308;28;20852;-64
2021/11/04 01:06:52;;;;;;;61.83;35.57;;;8.90;96.20;;;;;;5053473;28;20445;-64
2021/11/04 01:09:19;;;;;;;56.70;34.63;;;8.80;96.20;;;;;;5053512;28;20469;-64
2021/11/04 01:11:45;;;;;;;62.67;38.93;;;8.90;96.30;;;;;;5053388;28;20446;-64
2021/11/04 01:14:13;;;;;;;53.40;33.97;;;8.90;96.20;;;;;;5053200;28;20477;-64
2021/11/04 01:16:39;;;;;;;57.90;36.10;;;8.90;96.30;;;;;;5053332;28;20481;-65
2021/11/04 01:19:07;;;;;;;61.87;35.23;;;8.90;96.40;;;;;;5053171;28;20465;-64
2021/11/04 01:21:35;;;;;;;63.30;34.97;;;8.80;96.40;;;;;;5053111;28;20574;-64
2021/11/04 01:24:01;;;;;;;61.07;36.97;;;8.90;96.60;;;;;;5053124;28;20449;-64
2021/11/04 01:26:28;;;;;;;65.07;37.37;;;8.90;96.60;;;;;;5053023;28;20452;-64
2021/11/04 01:28:55;;;;;;;62.53;36.77;;;8.80;96.50;;;;;;5052669;28;20495;-64
2021/11/04 01:31:22;;;;;;;58.20;33.87;;;8.90;96.40;;;;;;5053096;28;20433;-64
2021/11/04 01:33:48;;;;;;;64.83;36.87;;;8.90;96.40;;;;;;5052889;28;20488;-64
2021/11/04 01:36:15;;;;;;;56.00;35.10;;;8.90;96.40;;;;;;5053083;28;20457;-65
2021/11/04 01:38:43;;;;;;;58.73;36.37;;;8.90;96.40;;;;;;5053022;28;20468;-65
2021/11/04 01:41:10;;;;;;;57.93;33.77;;;8.90;96.30;;;;;;5053236;28;20459;-64
2021/11/04 01:43:37;;;;;;;56.60;35.20;;;9.00;96.40;;;;;;5053069;28;20445;-64
2021/11/04 01:46:05;;;;;;;59.43;34.23;;;8.90;96.30;;;;;;5052938;28;20818;-64
2021/11/04 01:48:32;;;;;;;64.40;38.30;;;8.90;96.20;;;;;;5052767;28;20492;-64
2021/11/04 01:50:58;;;;;;;67.97;37.37;;;8.90;96.20;;;;;;5055246;28;20787;-64
2021/11/04 01:53:25;;;;;;;67.03;36.57;;;8.90;96.20;;;;;;5056467;28;20492;-64
2021/11/04 01:55:53;;;;;;;58.53;34.17;;;8.90;96.20;;;;;;5056445;28;20461;-64
2021/11/04 01:58:20;;;;;;;70.33;35.70;;;8.90;96.10;;;;;;5056273;28;20466;-64
2021/11/04 02:00:47;;;;;;;60.37;36.60;;;8.90;96.10;;;;;;5056024;28;20947;-64
2021/11/04 02:03:22;;;;;;;68.73;36.50;;;8.90;96.00;;;;;;5056275;28;20445;-64
2021/11/04 02:05:56;;;;;;;74.33;39.03;;;8.80;96.00;;;;;;5056265;28;20436;-64
2021/11/04 02:08:28;;;;;;;78.77;40.03;;;8.70;96.20;;;;;;5056224;28;20476;-64
2021/11/04 02:11:01;;;;;;;66.97;36.77;;;8.70;96.60;;;;;;5056313;28;20437;-64
2021/11/04 02:13:32;;;;;;;69.23;38.03;;;8.70;96.40;;;;;;5056213;28;20466;-64
2021/11/04 02:16:02;;;;;;;78.90;40.13;;;8.60;96.50;;;;;;5056106;28;20430;-64
2021/11/04 02:18:31;;;;;;;79.63;40.17;;;8.60;96.70;;;;;;5056439;28;20484;-65
2021/11/04 02:21:07;;;;;;;76.93;39.43;;;8.60;96.80;;;;;;5056001;28;20449;-64
2021/11/04 02:23:36;;;;;;;69.87;36.97;;;8.50;96.90;;;;;;5055959;28;20433;-64
2021/11/04 02:26:06;;;;;;;70.30;37.80;;;8.50;97.00;;;;;;5055584;28;20449;-66
2021/11/04 02:28:34;;;;;;;74.43;36.57;;;8.40;97.20;;;;;;5055810;28;20487;-65
2021/11/04 02:31:02;;;;;;;76.37;37.93;;;8.40;97.20;;;;;;5055780;28;20485;-64
2021/11/04 02:33:30;;;;;;;62.27;34.83;;;8.40;97.30;;;;;;5055710;28;20869;-64
2021/11/04 02:35:59;;;;;;;68.17;35.60;;;8.30;97.20;;;;;;5056124;28;20860;-64
2021/11/04 02:38:31;;;;;;;65.93;34.83;;;8.30;97.30;;;;;;5055602;28;20564;-65
2021/11/04 02:40:58;;;;;;;61.37;35.17;;;8.30;97.10;;;;;;5055685;28;20430;-65
2021/11/04 02:43:29;;;;;;;61.90;33.17;;;8.20;97.00;;;;;;5055560;28;20457;-64
2021/11/04 02:45:55;;;;;;;61.03;34.40;;;8.10;97.00;;;;;;5055695;28;20530;-64
2021/11/04 02:48:22;;;;;;;57.93;31.40;;;8.00;97.10;;;;;;5055531;28;20474;-64
2021/11/04 02:50:51;;;;;;;59.33;34.00;;;8.00;97.20;;;;;;5055517;28;20437;-64
2021/11/04 02:53:19;;;;;;;53.00;31.97;;;8.00;97.40;;;;;;5055332;28;20521;-65
2021/11/04 02:55:46;;;;;;;55.47;32.90;;;8.00;97.30;;;;;;5055354;28;20449;-64
2021/11/04 02:58:14;;;;;;;57.60;34.03;;;8.10;97.30;;;;;;5055155;28;20500;-66
2021/11/04 03:00:46;;;;;;;61.63;34.20;;;8.10;97.10;;;;;;5054535;28;20955;-64
2021/11/04 03:03:12;;;;;;;60.07;33.77;;;8.00;97.20;;;;;;5054851;28;20778;-64
2021/11/04 03:05:39;;;;;;;56.83;32.27;;;8.00;97.40;;;;;;5054798;28;20434;-64
2021/11/04 03:08:06;;;;;;;64.00;35.63;;;8.00;97.00;;;;;;5054609;28;20987;-65
2021/11/04 03:10:33;;;;;;;56.60;32.70;;;8.00;97.00;;;;;;5054985;28;20453;-64
2021/11/04 03:13:00;;;;;;;62.00;33.70;;;8.00;97.40;;;;;;5054910;28;20484;-64
2021/11/04 03:15:30;;;;;;;53.37;30.90;;;8.00;97.10;;;;;;5054992;28;20477;-64
2021/11/04 03:17:59;;;;;;;60.60;33.27;;;8.00;97.20;;;;;;5054642;28;20467;-65
2021/11/04 03:20:26;;;;;;;70.07;35.97;;;8.00;97.20;;;;;;5055070;28;20457;-64
2021/11/04 03:22:54;;;;;;;57.73;32.57;;;8.10;97.30;;;;;;5054917;28;20919;-64
2021/11/04 03:25:21;;;;;;;69.17;35.83;;;8.10;97.20;;;;;;5054867;28;20454;-64
2021/11/04 03:27:51;;;;;;;74.70;35.33;;;8.00;97.20;;;;;;5054838;28;20453;-65
2021/11/04 03:30:22;;;;;;;75.63;36.13;;;8.10;97.30;;;;;;5054308;28;20966;-64
2021/11/04 03:32:49;;;;;;;70.97;38.23;;;8.10;97.50;;;;;;5054553;28;20441;-64
2021/11/04 03:35:18;;;;;;;76.27;36.83;;;8.10;97.40;;;;;;5054321;28;20935;-65
2021/11/04 03:37:47;;;;;;;82.50;38.30;;;8.10;97.30;;;;;;5054629;28;20787;-65
2021/11/04 03:40:15;;;;;;;79.23;37.90;;;8.10;97.40;;;;;;5054351;28;20449;-65
2021/11/04 03:42:43;;;;;;;78.43;37.03;;;8.10;97.30;;;;;;5054382;28;20454;-65
2021/11/04 03:45:13;;;;;;;73.10;36.40;;;8.10;97.50;;;;;;5054402;28;20449;-65
2021/11/04 03:47:42;;;;;;;84.43;35.73;;;8.10;97.60;;;;;;5054357;28;20531;-66
2021/11/04 03:50:13;;;;;;;84.93;37.70;;;8.10;97.50;;;;;;5054297;28;20826;-65
2021/11/04 03:52:43;;;;;;;78.77;39.40;;;8.20;97.50;;;;;;5054464;28;20426;-65
2021/11/04 03:55:12;;;;;;;86.50;39.30;;;8.10;97.50;;;;;;5054304;28;20780;-65
2021/11/04 03:57:41;;;;;;;91.73;38.70;;;8.10;97.50;;;;;;5054061;28;20450;-66
2021/11/04 04:00:09;;;;;;;85.20;38.90;;;8.10;97.60;;;;;;5054089;28;20434;-65
2021/11/04 04:02:37;;;;;;;105.23;40.77;;;8.00;97.60;;;;;;5054038;28;20456;-65
2021/11/04 04:05:05;;;;;;;97.43;40.07;;;8.00;97.70;;;;;;5053949;28;20446;-66
2021/11/04 04:07:33;;;;;;;95.37;40.47;;;7.90;97.80;;;;;;5053859;28;20430;-65
2021/11/04 04:10:01;;;;;;;93.87;40.90;;;7.90;98.00;;;;;;5053923;28;20448;-65
2021/11/04 04:12:28;;;;;;;97.40;39.57;;;7.90;98.00;;;;;;5053293;28;20448;-65
2021/11/04 04:14:55;;;;;;;112.20;43.20;;;7.90;98.20;;;;;;5053792;28;20485;-65
2021/11/04 04:17:23;;;;;;;98.27;42.97;;;7.90;98.30;;;;;;5053946;28;20449;-65
2021/11/04 04:19:50;;;;;;;111.07;44.20;;;8.00;98.40;;;;;;5053848;28;20501;-66
2021/11/04 04:22:17;;;;;;;97.30;40.23;;;8.00;98.40;;;;;;5053539;28;20453;-66
2021/11/04 04:24:44;;;;;;;86.30;39.87;;;7.90;98.30;;;;;;5053747;28;20452;-65
2021/11/04 04:27:14;;;;;;;92.80;39.53;;;7.90;98.20;;;;;;5053392;28;20429;-66
2021/11/04 04:29:40;;;;;;;90.67;40.10;;;7.90;98.10;;;;;;5053286;28;20575;-65
2021/11/04 04:32:08;;;;;;;87.07;42.10;;;7.90;98.10;;;;;;5053265;28;20448;-65
2021/11/04 04:34:35;;;;;;;86.83;41.13;;;7.80;98.00;;;;;;5053625;28;20462;-65
2021/11/04 04:37:02;;;;;;;87.40;42.43;;;7.90;98.20;;;;;;5053510;28;20827;-66
2021/11/04 04:39:30;;;;;;;83.70;42.00;;;7.80;98.10;;;;;;5053362;28;20461;-65
2021/11/04 04:41:57;;;;;;;82.10;41.20;;;7.90;98.20;;;;;;5054538;28;20453;-65
2021/11/04 04:44:25;;;;;;;85.43;39.53;;;7.90;98.00;;;;;;5053350;28;20461;-65
2021/11/04 04:46:51;;;;;;;81.50;41.00;;;7.90;98.00;;;;;;5053416;28;20540;-65
2021/11/04 04:49:18;;;;;;;83.33;41.53;;;7.90;98.10;;;;;;5053235;28;20477;-65
2021/11/04 04:51:45;;;;;;;74.87;40.60;;;7.90;98.10;;;;;;5053662;28;20472;-65
2021/11/04 04:54:12;;;;;;;85.13;41.10;;;7.90;98.00;;;;;;5053230;28;20470;-65
2021/11/04 04:56:39;;;;;;;77.20;38.47;;;7.90;98.10;;;;;;5052927;28;20939;-65
2021/11/04 04:59:06;;;;;;;68.87;37.30;;;8.00;98.20;;;;;;5053142;28;20469;-65
2021/11/04 05:01:34;;;;;;;76.57;38.60;;;7.90;97.80;;;;;;5052936;28;20967;-65
2021/11/04 05:04:00;;;;;;;70.67;38.60;;;7.90;97.90;;;;;;5053236;28;20444;-65
2021/11/04 05:06:27;;;;;;;80.27;37.97;;;7.90;97.90;;;;;;5053259;28;20453;-65
2021/11/04 05:08:54;;;;;;;69.77;36.97;;;7.90;98.00;;;;;;5053107;28;20469;-65
2021/11/04 05:11:21;;;;;;;82.17;37.50;;;7.90;98.00;;;;;;5053155;28;20430;-65
2021/11/04 05:13:47;;;;;;;65.57;35.90;;;7.90;98.00;;;;;;5053076;28;20486;-65
2021/11/04 05:16:14;;;;;;;78.73;38.50;;;7.90;97.90;;;;;;5053208;28;20457;-65
2021/11/04 05:18:42;;;;;;;77.40;36.87;;;7.90;97.90;;;;;;5053050;28;20470;-65
2021/11/04 05:21:09;;;;;;;66.93;34.83;;;7.90;98.10;;;;;;5053052;28;20820;-65
2021/11/04 05:23:36;;;;;;;70.53;37.83;;;7.90;98.00;;;;;;5052886;28;20448;-65
2021/11/04 05:26:02;;;;;;;67.37;36.70;;;7.90;98.10;;;;;;5056703;28;20503;-65
2021/11/04 05:28:29;;;;;;;71.10;37.27;;;8.00;98.10;;;;;;5056721;28;20469;-64
2021/11/04 05:30:57;;;;;;;70.27;37.63;;;8.00;98.00;;;;;;5056471;28;20453;-64
2021/11/04 05:33:23;;;;;;;61.97;35.47;;;8.00;97.90;;;;;;5056460;28;20445;-65
2021/11/04 05:35:51;;;;;;;63.97;33.70;;;8.10;97.90;;;;;;5056882;28;20456;-64
2021/11/04 05:38:18;;;;;;;70.10;37.53;;;8.10;97.80;;;;;;5056680;28;20484;-65
2021/11/04 05:40:45;;;;;;;70.23;34.27;;;8.10;97.80;;;;;;5057471;28;20790;-65
2021/11/04 05:43:12;;;;;;;67.03;35.43;;;8.20;97.90;;;;;;5056613;28;20468;-64
2021/11/04 05:45:38;;;;;;;62.93;35.73;;;8.20;97.70;;;;;;5056563;28;20448;-64
2021/11/04 05:48:05;;;;;;;68.33;35.93;;;8.30;97.60;;;;;;5056503;28;20484;-64
2021/11/04 05:50:32;;;;;;;61.10;34.87;;;8.30;97.30;;;;;;5056395;28;20456;-64
2021/11/04 05:53:00;;;;;;;71.70;36.83;;;8.20;97.20;;;;;;5056152;28;20946;-64
2021/11/04 05:55:27;;;;;;;68.77;35.90;;;8.20;97.20;;;;;;5055927;28;21072;-65
2021/11/04 05:57:54;;;;;;;70.47;37.80;;;8.10;97.10;;;;;;5055981;28;20465;-64
2021/11/04 06:00:21;;;;;;;65.80;34.83;;;8.10;97.20;;;;;;5056289;28;20447;-64
2021/11/04 06:02:47;;;;;;;65.87;34.30;;;8.10;97.20;;;;;;5056263;28;20828;-64
2021/11/04 06:05:14;;;;;;;65.60;35.77;;;8.10;97.20;;;;;;5056173;28;20449;-64
2021/11/04 06:07:41;;;;;;;63.50;35.47;;;8.10;97.20;;;;;;5056080;28;20860;-65
2021/11/04 06:10:09;;;;;;;65.57;37.17;;;8.10;97.30;;;;;;5056085;28;20479;-64
2021/11/04 06:12:36;;;;;;;69.87;36.20;;;8.10;97.30;;;;;;5056241;28;20449;-64
2021/11/04 06:15:03;;;;;;;69.30;36.50;;;8.10;97.40;;;;;;5055919;28;20477;-64
2021/11/04 06:17:29;;;;;;;67.53;35.77;;;8.10;97.40;;;;;;5055910;28;20966;-64
2021/11/04 06:19:56;;;;;;;68.80;35.20;;;8.10;97.50;;;;;;5055587;28;20457;-64
2021/11/04 06:22:23;;;;;;;73.40;37.43;;;8.10;97.60;;;;;;5055933;28;20442;-64
2021/11/04 06:24:50;;;;;;;74.17;36.60;;;8.10;97.60;;;;;;5055862;28;20442;-64
2021/11/04 06:27:18;;;;;;;71.77;37.20;;;8.10;97.50;;;;;;5055849;28;20449;-64
2021/11/04 06:29:44;;;;;;;69.23;37.17;;;8.10;97.40;;;;;;5055651;28;20480;-64
2021/11/04 06:32:11;;;;;;;67.70;34.63;;;8.10;97.50;;;;;;5055436;28;20931;-64
2021/11/04 06:34:38;;;;;;;69.93;34.90;;;8.10;97.50;;;;;;5055663;28;20477;-64
2021/11/04 06:37:05;;;;;;;78.10;38.23;;;8.10;97.40;;;;;;5054980;28;20801;-64
2021/11/04 06:39:32;;;;;;;84.73;38.47;;;8.10;97.50;;;;;;5055547;28;20852;-64
2021/11/04 06:41:58;;;;;;;69.43;36.60;;;8.00;97.50;;;;;;5055520;28;20441;-64
2021/11/04 06:44:26;;;;;;;70.03;34.90;;;8.00;97.60;;;;;;5055464;28;20437;-64
2021/11/04 06:47:00;;;;;;;72.87;36.83;;;7.90;97.60;;;;;;5055378;28;20453;-64
2021/11/04 06:49:29;;;;;;;67.60;35.43;;;7.90;97.70;;;;;;5055165;28;20466;-64
2021/11/04 06:51:57;;;;;;;66.97;36.30;;;7.90;97.80;;;;;;5055019;28;20979;-64
2021/11/04 06:54:26;;;;;;;70.97;35.03;;;7.80;97.90;;;;;;5055216;28;20465;-65
2021/11/04 06:56:54;;;;;;;71.77;36.27;;;7.70;98.00;;;;;;5055280;28;20449;-64
2021/11/04 06:59:22;;;;;;;74.70;35.47;;;7.50;98.30;;;;;;5055183;28;20500;-65
2021/11/04 07:01:54;;;;;;;63.53;34.40;;;7.60;98.50;;;;;;5055156;28;20455;-65
2021/11/04 07:04:29;;;;;;;67.20;34.27;;;7.60;98.50;;;;;;5055131;28;20433;-65
2021/11/04 07:07:06;;;;;;;66.57;35.10;;;7.60;98.50;;;;;;5055088;28;20480;-64
2021/11/04 07:09:34;;;;;;;62.87;33.70;;;7.60;98.50;;;;;;5054699;28;20815;-64
2021/11/04 07:12:02;;;;;;;68.50;36.73;;;7.60;98.60;;;;;;5054946;28;20862;-64
2021/11/04 07:14:30;;;;;;;90.23;43.30;;;7.50;98.50;;;;;;5054833;28;20473;-64
2021/11/04 07:17:00;;;;;;;83.20;42.20;;;7.60;98.70;;;;;;5054889;28;20874;-64
2021/11/04 07:19:28;;;;;;;94.23;44.07;;;7.60;98.60;;;;;;5054782;28;20473;-64
2021/11/04 07:22:03;;;;;;;63.80;36.83;;;7.60;98.60;;;;;;5054719;28;20453;-64
2021/11/04 07:24:33;;;;;;;67.63;38.57;;;7.70;98.50;;;;;;5055013;28;20426;-64
2021/11/04 07:27:14;;;;;;;69.03;38.23;;;7.70;98.20;;;;;;5054426;28;20961;-65
2021/11/04 07:29:43;;;;;;;62.77;34.47;;;7.70;98.00;;;;;;5054116;28;20492;-64
2021/11/04 07:32:15;;;;;;;60.87;36.17;;;7.70;98.00;;;;;;5054532;28;20445;-64
2021/11/04 07:34:45;;;;;;;69.00;37.10;;;7.70;97.90;;;;;;5055269;28;20808;-64
2021/11/04 07:37:13;;;;;;;63.60;36.33;;;7.70;97.80;;;;;;5054481;28;20457;-64
2021/11/04 07:39:40;;;;;;;73.70;38.17;;;7.70;97.90;;;;;;5055142;28;20816;-64
2021/11/04 07:42:08;;;;;;;66.53;39.40;;;7.80;98.00;;;;;;5054536;28;20450;-64
2021/11/04 07:44:36;;;;;;;73.93;37.57;;;7.80;98.00;;;;;;5054406;28;20480;-64
2021/11/04 07:47:05;;;;;;;59.80;33.37;;;7.80;98.00;;;;;;5053770;28;20441;-64
2021/11/04 07:49:34;;;;;;;59.43;33.03;;;7.80;97.90;;;;;;5053779;28;20832;-65
2021/11/04 07:52:01;;;;;;;64.97;33.77;;;7.80;97.90;;;;;;5054454;28;20449;-64
2021/11/04 07:54:30;;;;;;;59.87;33.97;;;7.70;97.70;;;;;;5054064;28;20553;-64
2021/11/04 07:56:56;;;;;;;50.87;31.50;;;7.70;97.60;;;;;;5054116;28;20906;-64
2021/11/04 07:59:26;;;;;;;62.40;32.17;;;7.70;97.80;;;;;;5053987;28;20465;-64
2021/11/04 08:01:53;;;;;;;58.43;33.60;;;7.60;97.90;;;;;;5054303;28;20434;-66
2021/11/04 08:04:19;;;;;;;58.40;34.33;;;7.60;98.10;;;;;;5053643;28;20974;-64
2021/11/04 08:06:47;;;;;;;56.03;34.57;;;7.60;98.10;;;;;;5054224;28;20430;-64
2021/11/04 08:09:14;;;;;;;55.27;34.47;;;7.70;98.00;;;;;;5053646;28;20476;-65
2021/11/04 08:11:41;;;;;;;57.37;33.07;;;7.70;97.90;;;;;;5053840;28;20452;-65
2021/11/04 08:14:08;;;;;;;52.83;32.67;;;7.70;97.70;;;;;;5053655;28;20954;-64
2021/11/04 08:16:34;;;;;;;48.80;32.70;;;7.80;97.80;;;;;;5053872;28;20437;-64
2021/11/04 08:19:01;;;;;;;45.00;31.70;;;7.80;97.60;;;;;;5053604;28;20465;-65
2021/11/04 08:21:28;;;;;;;42.00;28.33;;;7.80;97.40;;;;;;5053672;28;20437;-64
2021/11/04 08:23:56;;;;;;;42.63;29.30;;;7.80;97.20;;;;;;5053718;28;20468;-64
2021/11/04 08:26:23;;;;;;;39.83;29.30;;;7.90;97.30;;;;;;5053281;28;20441;-64
2021/11/04 08:28:50;;;;;;;43.37;27.17;;;7.90;97.20;;;;;;5053328;28;20852;-64
2021/11/04 08:31:17;;;;;;;41.00;26.77;;;7.90;97.20;;;;;;5053558;28;20512;-64
2021/11/04 08:33:43;;;;;;;40.57;28.30;;;8.00;97.20;;;;;;5053549;28;20445;-64
2021/11/04 08:36:10;;;;;;;40.33;27.17;;;8.00;97.20;;;;;;5052996;28;20979;-64
2021/11/04 08:38:37;;;;;;;44.10;29.00;;;8.00;97.20;;;;;;5053360;28;20472;-64
2021/11/04 08:41:05;;;;;;;45.77;29.10;;;8.10;97.40;;;;;;5053467;28;20810;-64
2021/11/04 08:43:32;;;;;;;49.23;30.73;;;8.00;97.20;;;;;;5053305;28;20442;-64
2021/11/04 08:45:59;;;;;;;49.43;31.90;;;8.00;97.50;;;;;;5053367;28;20445;-64
2021/11/04 08:48:25;;;;;;;55.40;31.10;;;8.00;97.60;;;;;;5053257;28;20469;-64
2021/11/04 08:50:52;;;;;;;50.73;31.33;;;8.10;97.70;;;;;;5053320;28;20446;-64
2021/11/04 08:53:19;;;;;;;51.13;30.30;;;8.10;97.70;;;;;;5053272;28;20449;-64
2021/11/04 08:55:46;;;;;;;55.83;32.83;;;8.30;97.80;;;;;;5053090;28;20465;-64
2021/11/04 08:58:15;;;;;;;60.33;34.93;;;8.30;97.60;;;;;;5053273;28;20470;-64
2021/11/04 09:00:42;;;;;;;57.10;33.13;;;8.40;97.60;;;;;;5056777;28;20971;-64
2021/11/04 09:03:09;;;;;;;58.73;34.53;;;8.50;97.60;;;;;;5057409;28;20436;-64
2021/11/04 09:05:36;;;;;;;59.43;35.40;;;8.50;97.50;;;;;;5057268;28;20441;-64
2021/11/04 09:08:05;;;;;;;67.63;34.23;;;8.60;97.60;;;;;;5057258;28;20472;-65
2021/11/04 09:10:32;;;;;;;65.53;35.93;;;8.60;97.20;;;;;;5057211;28;20468;-64
2021/11/04 09:12:59;;;;;;;68.30;37.57;;;8.60;97.50;;;;;;5057557;28;20445;-65
2021/11/04 09:15:27;;;;;;;69.00;37.43;;;8.70;97.20;;;;;;5057200;28;20476;-64
2021/11/04 09:17:54;;;;;;;80.07;39.13;;;8.70;97.30;;;;;;5057025;28;20460;-64
2021/11/04 09:20:21;;;;;;;73.87;39.77;;;8.80;97.30;;;;;;5057232;28;20817;-65
2021/11/04 09:22:50;;;;;;;73.57;38.60;;;8.80;97.10;;;;;;5057187;28;20457;-65
2021/11/04 09:25:19;;;;;;;65.90;39.10;;;8.80;97.20;;;;;;5056965;28;20527;-64
2021/11/04 09:27:46;;;;;;;77.30;39.77;;;8.90;97.10;;;;;;5057023;28;20445;-64
2021/11/04 09:30:13;;;;;;;71.10;39.80;;;9.00;97.30;;;;;;5056790;28;20453;-64
2021/11/04 09:32:43;;;;;;;72.23;39.10;;;9.20;97.20;;;;;;5056891;28;20445;-64
2021/11/04 09:35:12;;;;;;;72.13;38.40;;;9.30;96.90;;;;;;5056764;28;20496;-64
2021/11/04 09:37:39;;;;;;;75.90;40.73;;;9.30;96.70;;;;;;5056398;28;20978;-65
2021/11/04 09:40:07;;;;;;;77.03;41.67;;;9.40;96.50;;;;;;5056633;28;20452;-64
2021/11/04 09:42:34;;;;;;;72.17;40.50;;;9.40;96.50;;;;;;5056719;28;20449;-64
2021/11/04 09:45:01;;;;;;;68.60;40.20;;;9.40;96.20;;;;;;5056597;28;20446;-66
2021/11/04 09:47:30;;;;;;;70.67;40.13;;;9.40;96.30;;;;;;5056608;28;20437;-65
2021/11/04 09:50:00;;;;;;;76.47;43.03;;;9.50;96.30;;;;;;5056470;28;20472;-65
2021/11/04 09:52:30;;;;;;;74.73;42.10;;;9.40;96.20;;;;;;5056511;28;20429;-66
2021/11/04 09:54:58;;;;;;;68.80;40.70;;;9.50;96.20;;;;;;5056322;28;20437;-65
2021/11/04 09:57:27;;;;;;;66.10;40.50;;;9.40;96.30;;;;;;5056392;28;20824;-65
2021/11/04 09:59:55;;;;;;;73.33;39.83;;;9.50;96.50;;;;;;5056399;28;20548;-65
2021/11/04 10:02:23;;;;;;;71.50;41.73;;;9.50;96.50;;;;;;5056373;28;20466;-66
2021/11/04 10:04:51;;;;;;;92.90;41.03;;;9.50;96.30;;;;;;5056189;28;20454;-66
2021/11/04 10:07:20;;;;;;;68.03;40.77;;;9.50;96.40;;;;;;5056202;28;20449;-65
2021/11/04 10:09:59;;;;;;;66.53;39.83;;;9.60;96.50;;;;;;5056024;28;20882;-65
2021/11/04 10:12:27;;;;;;;73.33;40.30;;;9.60;96.80;;;;;;5055444;28;20536;-65
2021/11/04 10:14:55;;;;;;;76.27;41.57;;;9.70;96.90;;;;;;5055911;28;20468;-66
2021/11/04 10:17:31;;;;;;;70.47;42.33;;;9.70;96.80;;;;;;5056031;28;20434;-65
2021/11/04 10:19:58;;;;;;;64.87;40.77;;;9.80;96.80;;;;;;5055951;28;20485;-65
2021/11/04 10:22:28;;;;;;;65.73;39.77;;;9.90;96.80;;;;;;5055940;28;20454;-65
2021/11/04 10:24:55;;;;;;;59.40;39.43;;;10.10;95.90;;;;;;5055550;28;20963;-65
2021/11/04 10:27:30;;;;;;;64.47;39.43;;;10.00;95.30;;;;;;5055881;28;20441;-65
2021/11/04 10:29:57;;;;;;;63.57;37.97;;;10.10;95.50;;;;;;5055529;28;20512;-65
2021/11/04 10:32:33;;;;;;;63.50;39.10;;;10.10;95.60;;;;;;5055975;28;20449;-65
2021/11/04 10:35:07;;;;;;;62.37;39.10;;;10.10;95.80;;;;;;5055584;28;20519;-65
2021/11/04 10:37:50;;;;;;;61.03;37.27;;;10.10;95.50;;;;;;5055692;28;20494;-65
2021/11/04 10:40:19;;;;;;;60.17;36.17;;;10.10;95.40;;;;;;5055558;28;20521;-65
2021/11/04 10:42:54;;;;;;;62.50;38.90;;;10.10;95.60;;;;;;5055546;28;20456;-65
2021/11/04 10:45:23;;;;;;;61.43;39.70;;;10.10;95.70;;;;;;5055579;28;20452;-65
2021/11/04 10:48:17;;;;;;;58.20;40.20;;;10.10;95.60;;;;;;5055401;28;20449;-65
2021/11/04 10:50:45;;;;;;;56.43;37.37;;;10.20;95.90;;;;;;5055355;28;20476;-65
2021/11/04 10:53:16;;;;;;;61.30;39.60;;;10.30;95.60;;;;;;5055387;28;20452;-65
2021/11/04 10:55:45;;;;;;;61.60;41.10;;;10.30;95.20;;;;;;5054924;28;20465;-65
2021/11/04 10:58:27;;;;;;;62.77;39.97;;;10.30;95.30;;;;;;5055181;28;20515;-65
2021/11/04 11:00:54;;;;;;;60.47;39.07;;;10.40;95.50;;;;;;5055286;28;20434;-66
2021/11/04 11:03:23;;;;;;;57.37;38.50;;;10.60;95.80;;;;;;5055359;28;20822;-66
2021/11/04 11:05:50;;;;;;;56.50;39.50;;;10.90;95.20;;;;;;5055193;28;20446;-66
2021/11/04 11:08:18;;;;;;;50.87;36.97;;;11.00;95.00;;;;;;5055066;28;20501;-66
2021/11/04 11:10:46;;;;;;;50.87;36.63;;;11.30;94.90;;;;;;5055006;28;20450;-65
2021/11/04 11:13:13;;;;;;;50.67;36.80;;;11.60;94.10;;;;;;5054687;28;20429;-65
2021/11/04 11:15:41;;;;;;;49.40;35.17;;;12.10;93.70;;;;;;5054556;28;20481;-65
2021/11/04 11:18:09;;;;;;;45.30;35.00;;;12.50;92.10;;;;;;5054960;28;20472;-65
2021/11/04 11:20:43;;;;;;;49.27;37.53;;;12.60;90.40;;;;;;5054851;28;20434;-65
2021/11/04 11:23:13;;;;;;;49.93;37.97;;;12.40;90.20;;;;;;5054587;28;20430;-65
2021/11/04 11:25:42;;;;;;;52.83;37.10;;;12.30;90.80;;;;;;5054722;28;20449;-65
2021/11/04 11:28:09;;;;;;;48.03;38.13;;;12.30;91.00;;;;;;5054669;28;20815;-65
2021/11/04 11:30:36;;;;;;;47.80;36.90;;;12.30;91.10;;;;;;5054302;28;20830;-65
2021/11/04 11:33:25;;;;;;;48.47;37.77;;;12.20;91.40;;;;;;5054635;28;20434;-65
2021/11/04 11:36:10;;;;;;;54.50;38.10;;;12.20;91.10;;;;;;5054478;28;20531;-65
2021/11/04 11:39:06;;;;;;;52.50;39.40;;;12.10;90.90;;;;;;5054467;28;20880;-65
2021/11/04 11:41:55;;;;;;;51.97;39.50;;;12.00;91.00;;;;;;5050593;28;20939;-65
2021/11/04 11:44:35;;;;;;;50.37;37.70;;;12.10;91.60;;;;;;5054202;28;20936;-65
2021/11/04 11:47:03;;;;;;;48.40;36.10;;;12.20;91.80;;;;;;5054298;28;20425;-64
2021/11/04 11:49:31;;;;;;;45.53;35.20;;;12.20;91.30;;;;;;5054174;28;20470;-65
2021/11/04 11:51:58;;;;;;;46.47;35.23;;;12.10;91.00;;;;;;5053809;28;21042;-64
2021/11/04 11:55:18;;;;;;;43.70;35.63;;;12.10;91.00;;;;;;5054053;28;20449;-65
2021/11/04 11:58:22;;;;;;;42.93;34.10;;;12.00;90.90;;;;;;5011913;28;20935;-64
2021/11/04 12:00:57;;;;;;;45.73;34.57;;;11.90;91.10;;;;;;5012098;28;20435;-64
2021/11/04 12:03:46;;;;;;;44.37;35.50;;;12.00;91.30;;;;;;5043415;28;20444;-65
2021/11/04 12:06:49;;;;;;;47.73;38.13;;;12.00;91.70;;;;;;5053687;28;20421;-66
2021/11/04 12:09:40;;;;;;;41.90;32.10;;;12.20;91.70;;;;;;5053904;28;20839;-66
2021/11/04 12:12:09;;;;;;;48.83;31.17;;;12.30;91.50;;;;;;5053574;28;20430;-64
2021/11/04 12:14:38;;;;;;;37.13;31.23;;;12.30;91.10;;;;;;5053830;28;20442;-64
2021/11/04 12:17:09;;;;;;;38.63;29.37;;;12.20;91.30;;;;;;5053533;28;20458;-65
2021/11/04 12:19:37;;;;;;;37.80;28.57;;;12.00;91.30;;;;;;5053362;28;20885;-65
2021/11/04 12:22:06;;;;;;;33.10;28.53;;;12.00;91.80;;;;;;5054005;28;20434;-65
2021/11/04 12:24:33;;;;;;;33.20;27.70;;;11.70;91.70;;;;;;5053676;28;20446;-65
2021/11/04 12:27:09;;;;;;;35.57;29.40;;;11.70;92.10;;;;;;5053588;28;20456;-65
2021/11/04 12:29:37;;;;;;;32.83;29.03;;;11.60;92.50;;;;;;5052725;28;20504;-65
2021/11/04 12:32:09;;;;;;;34.03;26.47;;;11.60;92.80;;;;;;5052506;28;20453;-65
2021/11/04 12:34:37;;;;;;;31.17;24.90;;;11.80;92.80;;;;;;5052418;28;20923;-65
2021/11/04 12:37:09;;;;;;;21.57;18.20;;;12.30;92.10;;;;;;5053416;28;20487;-65
2021/11/04 12:39:36;;;;;;;22.47;18.10;;;12.40;89.00;;;;;;5054408;28;20477;-65
2021/11/04 12:42:03;;;;;;;24.03;20.10;;;12.40;88.00;;;;;;5053103;28;20817;-65
2021/11/04 12:44:32;;;;;;;24.37;21.87;;;12.50;89.80;;;;;;5053451;28;20449;-65